sensor_id;sensor_type;location;lat;lon;timestamp;temperature;humidity
9668;DHT22;4872;48.316;10.650;2022-12-07T04:51:04;2.50;99.90
9668;DHT22;4872;48.316;10.650;2022-12-07T04:53:31;2.40;99.90
9668;DHT22;4872;48.316;10.650;2022-12-07T04:55:57;2.50;99.90
9668;DHT22;4872;48.316;10.650;2022-12-07T04:58:26;2.40;99.90
9668;DHT22;4872;48.316;10.650;2022-12-07T05:00:54;2.40;99.90
9668;DHT22;4872;48.316;10.650;2022-12-07T05:03:21;2.40;99.90
9668;DHT22;4872;48.316;10.650;2022-12-07T05:05:47;2.50;99.90
9668;DHT22;4872;48.316;10.650;2022-12-07T05:08:16;2.50;99.90
9668;DHT22;4872;48.316;10.650;2022-12-07T05:10:42;2.50;99.90
9668;DHT22;4872;48.316;10.650;2022-12-07T05:13:09;2.50;99.90
9668;DHT22;4872;48.316;10.650;2022-12-07T05:15:36;2.50;99.90
9668;DHT22;4872;48.316;10.650;2022-12-07T05:18:03;2.60;99.90
9668;DHT22;4872;48.316;10.650;2022-12-07T05:20:30;2.60;99.90
9668;DHT22;4872;48.316;10.650;2022-12-07T05:22:57;2.80;99.90
9668;DHT22;4872;48.316;10.650;2022-12-07T05:25:25;2.60;99.90
9668;DHT22;4872;48.316;10.650;2022-12-07T05:27:52;2.70;99.90
9668;DHT22;4872;48.316;10.650;2022-12-07T05:30:21;2.70;99.90
9668;DHT22;4872;48.316;10.650;2022-12-07T05:32:47;2.70;99.90
9668;DHT22;4872;48.316;10.650;2022-12-07T05:35:14;2.70;99.90
9668;DHT22;4872;48.316;10.650;2022-12-07T05:37:41;2.60;99.90
9668;DHT22;4872;48.316;10.650;2022-12-07T05:40:09;2.70;99.90
9668;DHT22;4872;48.316;10.650;2022-12-07T05:42:39;2.70;99.90
9668;DHT22;4872;48.316;10.650;2022-12-07T05:45:07;2.70;99.90
9668;DHT22;4872;48.316;10.650;2022-12-07T05:47:34;2.60;99.90
9668;DHT22;4872;48.316;10.650;2022-12-07T05:50:01;2.60;99.90
9668;DHT22;4872;48.316;10.650;2022-12-07T05:52:28;2.70;99.90
9668;DHT22;4872;48.316;10.650;2022-12-07T05:54:54;2.70;99.90
9668;DHT22;4872;48.316;10.650;2022-12-07T05:57:21;2.70;99.90
9668;DHT22;4872;48.316;10.650;2022-12-07T05:59:49;2.70;99.90
9668;DHT22;4872;48.316;10.650;2022-12-07T06:02:16;2.70;99.90
9668;DHT22;4872;48.316;10.650;2022-12-07T06:04:45;2.70;99.90
9668;DHT22;4872;48.316;10.650;2022-12-07T06:07:14;2.70;99.90
9668;DHT22;4872;48.316;10.650;2022-12-07T06:09:41;2.70;99.90
9668;DHT22;4872;48.316;10.650;2022-12-07T06:12:09;2.70;99.90
9668;DHT22;4872;48.316;10.650;2022-12-07T06:14:55;2.60;99.90
9668;DHT22;4872;48.316;10.650;2022-12-07T06:17:22;2.50;99.90
9668;DHT22;4872;48.316;10.650;2022-12-07T06:19:48;2.60;99.90
9668;DHT22;4872;48.316;10.650;2022-12-07T06:22:15;2.60;99.90
9668;DHT22;4872;48.316;10.650;2022-12-07T06:24:43;2.60;99.90
9668;DHT22;4872;48.316;10.650;2022-12-07T06:27:10;2.60;99.90
9668;DHT22;4872;48.316;10.650;2022-12-07T06:29:37;2.60;99.90
9668;DHT22;4872;48.316;10.650;2022-12-07T06:32:05;2.60;99.90
9668;DHT22;4872;48.316;10.650;2022-12-07T06:34:32;2.60;99.90
9668;DHT22;4872;48.316;10.650;2022-12-07T06:36:59;2.60;99.90
9668;DHT22;4872;48.316;10.650;2022-12-07T06:39:27;2.60;99.90
9668;DHT22;4872;48.316;10.650;2022-12-07T06:41:55;2.70;99.90
9668;DHT22;4872;48.316;10.650;2022-12-07T06:44:23;2.60;99.90
9668;DHT22;4872;48.316;10.650;2022-12-07T06:46:50;2.60;99.90
9668;DHT22;4872;48.316;10.650;2022-12-07T06:49:18;2.60;99.90
9668;DHT22;4872;48.316;10.650;2022-12-07T06:51:45;2.60;99.90
9668;DHT22;4872;48.316;10.650;2022-12-07T06:54:13;2.50;99.90
9668;DHT22;4872;48.316;10.650;2022-12-07T06:56:40;2.60;99.90
9668;DHT22;4872;48.316;10.650;2022-12-07T06:59:07;2.50;99.90
9668;DHT22;4872;48.316;10.650;2022-12-07T07:01:35;2.50;99.90
9668;DHT22;4872;48.316;10.650;2022-12-07T07:04:02;2.50;99.90
9668;DHT22;4872;48.316;10.650;2022-12-07T07:06:30;2.50;99.90
9668;DHT22;4872;48.316;10.650;2022-12-07T07:08:57;2.50;99.90
9668;DHT22;4872;48.316;10.650;2022-12-07T07:11:24;2.50;99.90
9668;DHT22;4872;48.316;10.650;2022-12-07T07:13:51;2.50;99.90
9668;DHT22;4872;48.316;10.650;2022-12-07T07:16:19;2.50;99.90
9668;DHT22;4872;48.316;10.650;2022-12-07T07:18:46;2.50;99.90
9668;DHT22;4872;48.316;10.650;2022-12-07T07:21:12;2.40;99.90
9668;DHT22;4872;48.316;10.650;2022-12-07T07:23:40;2.40;99.90
9668;DHT22;4872;48.316;10.650;2022-12-07T07:26:07;2.40;99.90
9668;DHT22;4872;48.316;10.650;2022-12-07T07:28:34;2.40;99.90
9668;DHT22;4872;48.316;10.650;2022-12-07T07:31:01;2.40;99.90
9668;DHT22;4872;48.316;10.650;2022-12-07T07:33:28;2.40;99.90
9668;DHT22;4872;48.316;10.650;2022-12-07T07:35:55;2.40;99.90
9668;DHT22;4872;48.316;10.650;2022-12-07T07:38:21;2.40;99.90
9668;DHT22;4872;48.316;10.650;2022-12-07T07:40:50;2.40;99.90
9668;DHT22;4872;48.316;10.650;2022-12-07T07:43:16;2.40;99.90
9668;DHT22;4872;48.316;10.650;2022-12-07T07:45:44;2.40;99.90
9668;DHT22;4872;48.316;10.650;2022-12-07T07:48:11;2.40;99.90
9668;DHT22;4872;48.316;10.650;2022-12-07T07:50:38;2.40;99.90
9668;DHT22;4872;48.316;10.650;2022-12-07T07:53:04;2.40;99.90
9668;DHT22;4872;48.316;10.650;2022-12-07T07:55:31;2.40;99.90
9668;DHT22;4872;48.316;10.650;2022-12-07T07:58:00;2.40;99.90
9668;DHT22;4872;48.316;10.650;2022-12-07T08:00:27;2.40;99.90
9668;DHT22;4872;48.316;10.650;2022-12-07T08:02:53;2.40;99.90
9668;DHT22;4872;48.316;10.650;2022-12-07T08:05:20;2.40;99.90
9668;DHT22;4872;48.316;10.650;2022-12-07T08:07:47;2.40;99.90
9668;DHT22;4872;48.316;10.650;2022-12-07T08:10:14;2.40;99.90
9668;DHT22;4872;48.316;10.650;2022-12-07T08:12:42;2.40;99.90
9668;DHT22;4872;48.316;10.650;2022-12-07T08:15:25;2.50;99.90
9668;DHT22;4872;48.316;10.650;2022-12-07T08:17:52;2.70;99.90
9668;DHT22;4872;48.316;10.650;2022-12-07T08:20:19;2.50;99.90
9668;DHT22;4872;48.316;10.650;2022-12-07T08:22:45;2.60;99.90
9668;DHT22;4872;48.316;10.650;2022-12-07T08:25:12;2.60;99.90
9668;DHT22;4872;48.316;10.650;2022-12-07T08:27:39;2.70;99.90
9668;DHT22;4872;48.316;10.650;2022-12-07T08:30:07;2.70;99.90
9668;DHT22;4872;48.316;10.650;2022-12-07T08:32:35;2.70;99.90
9668;DHT22;4872;48.316;10.650;2022-12-07T08:35:02;2.80;99.90
9668;DHT22;4872;48.316;10.650;2022-12-07T08:37:29;2.80;99.90
9668;DHT22;4872;48.316;10.650;2022-12-07T08:39:56;2.90;99.90
9668;DHT22;4872;48.316;10.650;2022-12-07T08:42:23;2.90;99.90
9668;DHT22;4872;48.316;10.650;2022-12-07T08:44:55;3.00;99.90
9668;DHT22;4872;48.316;10.650;2022-12-07T08:47:22;3.20;99.90
9668;DHT22;4872;48.316;10.650;2022-12-07T08:49:52;3.10;99.90
9668;DHT22;4872;48.316;10.650;2022-12-07T08:52:20;3.00;99.90
9668;DHT22;4872;48.316;10.650;2022-12-07T08:54:47;3.20;99.90
9668;DHT22;4872;48.316;10.650;2022-12-07T08:57:14;3.20;99.90
9668;DHT22;4872;48.316;10.650;2022-12-07T08:59:41;3.30;99.90
9668;DHT22;4872;48.316;10.650;2022-12-07T09:02:07;3.30;99.90
9668;DHT22;4872;48.316;10.650;2022-12-07T09:04:34;3.30;99.90
9668;DHT22;4872;48.316;10.650;2022-12-07T09:07:03;3.40;99.90
9668;DHT22;4872;48.316;10.650;2022-12-07T09:09:30;3.40;99.90
9668;DHT22;4872;48.316;10.650;2022-12-07T09:11:57;3.50;99.90
9668;DHT22;4872;48.316;10.650;2022-12-07T09:14:24;3.50;99.90
9668;DHT22;4872;48.316;10.650;2022-12-07T09:16:50;3.50;99.90
9668;DHT22;4872;48.316;10.650;2022-12-07T09:19:17;3.50;99.90
9668;DHT22;4872;48.316;10.650;2022-12-07T09:21:44;3.50;99.90
9668;DHT22;4872;48.316;10.650;2022-12-07T09:24:13;3.60;99.90
9668;DHT22;4872;48.316;10.650;2022-12-07T09:26:40;3.70;99.90
9668;DHT22;4872;48.316;10.650;2022-12-07T09:29:07;3.70;99.90
9668;DHT22;4872;48.316;10.650;2022-12-07T09:31:36;3.70;99.90
9668;DHT22;4872;48.316;10.650;2022-12-07T09:34:03;3.90;99.90
9668;DHT22;4872;48.316;10.650;2022-12-07T09:36:30;3.90;99.90
9668;DHT22;4872;48.316;10.650;2022-12-07T09:38:57;4.00;99.90
9668;DHT22;4872;48.316;10.650;2022-12-07T09:41:26;4.10;99.90
9668;DHT22;4872;48.316;10.650;2022-12-07T09:44:04;4.10;99.90
9668;DHT22;4872;48.316;10.650;2022-12-07T09:46:34;4.30;99.90
9668;DHT22;4872;48.316;10.650;2022-12-07T09:49:02;4.50;99.90
9668;DHT22;4872;48.316;10.650;2022-12-07T09:51:29;4.60;99.90
9668;DHT22;4872;48.316;10.650;2022-12-07T09:53:58;4.70;99.90
9668;DHT22;4872;48.316;10.650;2022-12-07T09:56:29;4.80;99.90
9668;DHT22;4872;48.316;10.650;2022-12-07T09:58:59;4.70;99.90
9668;DHT22;4872;48.316;10.650;2022-12-07T10:01:29;4.70;99.90
9668;DHT22;4872;48.316;10.650;2022-12-07T10:04:01;4.80;99.90
9668;DHT22;4872;48.316;10.650;2022-12-07T10:06:29;4.80;99.90
9668;DHT22;4872;48.316;10.650;2022-12-07T10:08:56;4.90;99.90
9668;DHT22;4872;48.316;10.650;2022-12-07T10:11:22;4.80;99.90
9668;DHT22;4872;48.316;10.650;2022-12-07T10:13:52;4.80;99.90
9668;DHT22;4872;48.316;10.650;2022-12-07T10:16:32;4.60;99.90
9668;DHT22;4872;48.316;10.650;2022-12-07T10:19:18;4.70;99.40
9668;DHT22;4872;48.316;10.650;2022-12-07T10:22:09;4.60;98.90
9668;DHT22;4872;48.316;10.650;2022-12-07T10:24:36;4.30;98.30
9668;DHT22;4872;48.316;10.650;2022-12-07T10:27:05;4.30;98.60
9668;DHT22;4872;48.316;10.650;2022-12-07T10:29:36;4.50;99.00
9668;DHT22;4872;48.316;10.650;2022-12-07T10:32:06;4.60;99.30
9668;DHT22;4872;48.316;10.650;2022-12-07T10:34:48;4.80;99.50
9668;DHT22;4872;48.316;10.650;2022-12-07T10:37:17;5.00;99.50
9668;DHT22;4872;48.316;10.650;2022-12-07T10:39:47;5.10;99.30
9668;DHT22;4872;48.316;10.650;2022-12-07T10:42:19;5.30;99.00
9668;DHT22;4872;48.316;10.650;2022-12-07T10:44:48;5.50;99.10
9668;DHT22;4872;48.316;10.650;2022-12-07T10:47:24;5.50;98.80
9668;DHT22;4872;48.316;10.650;2022-12-07T10:50:25;5.40;98.50
9668;DHT22;4872;48.316;10.650;2022-12-07T10:53:23;5.40;99.00
9668;DHT22;4872;48.316;10.650;2022-12-07T10:56:10;5.40;99.10
9668;DHT22;4872;48.316;10.650;2022-12-07T10:58:53;5.30;98.80
9668;DHT22;4872;48.316;10.650;2022-12-07T11:01:28;5.10;99.00
9668;DHT22;4872;48.316;10.650;2022-12-07T11:04:12;5.00;99.00
9668;DHT22;4872;48.316;10.650;2022-12-07T11:06:46;5.00;99.30
9668;DHT22;4872;48.316;10.650;2022-12-07T11:12:33;5.00;99.30
9668;DHT22;4872;48.316;10.650;2022-12-07T11:15:07;5.10;99.10
9668;DHT22;4872;48.316;10.650;2022-12-07T11:17:44;5.20;99.10
9668;DHT22;4872;48.316;10.650;2022-12-07T11:20:29;5.20;98.90
9668;DHT22;4872;48.316;10.650;2022-12-07T11:23:03;5.30;98.60
9668;DHT22;4872;48.316;10.650;2022-12-07T11:25:32;5.30;98.00
9668;DHT22;4872;48.316;10.650;2022-12-07T11:28:17;5.20;97.90
9668;DHT22;4872;48.316;10.650;2022-12-07T11:30:53;5.20;98.00
9668;DHT22;4872;48.316;10.650;2022-12-07T11:33:29;5.20;97.90
9668;DHT22;4872;48.316;10.650;2022-12-07T11:36:07;5.30;98.30
9668;DHT22;4872;48.316;10.650;2022-12-07T11:38:42;5.20;97.90
9668;DHT22;4872;48.316;10.650;2022-12-07T11:41:11;5.30;98.20
9668;DHT22;4872;48.316;10.650;2022-12-07T11:43:50;5.10;97.90
9668;DHT22;4872;48.316;10.650;2022-12-07T11:46:22;5.00;97.80
9668;DHT22;4872;48.316;10.650;2022-12-07T11:48:57;5.00;98.10
9668;DHT22;4872;48.316;10.650;2022-12-07T11:51:25;5.00;98.20
9668;DHT22;4872;48.316;10.650;2022-12-07T11:53:56;5.10;98.20
9668;DHT22;4872;48.316;10.650;2022-12-07T11:56:26;5.20;98.40
9668;DHT22;4872;48.316;10.650;2022-12-07T11:58:56;5.30;98.40
9668;DHT22;4872;48.316;10.650;2022-12-07T12:01:35;5.30;97.80
9668;DHT22;4872;48.316;10.650;2022-12-07T12:04:16;5.20;97.80
9668;DHT22;4872;48.316;10.650;2022-12-07T12:06:45;5.20;98.20
9668;DHT22;4872;48.316;10.650;2022-12-07T12:09:14;5.10;98.00
9668;DHT22;4872;48.316;10.650;2022-12-07T12:11:56;5.10;98.30
9668;DHT22;4872;48.316;10.650;2022-12-07T12:14:37;5.10;98.10
9668;DHT22;4872;48.316;10.650;2022-12-07T12:17:20;5.00;98.10
9668;DHT22;4872;48.316;10.650;2022-12-07T12:20:07;5.00;98.20
9668;DHT22;4872;48.316;10.650;2022-12-07T12:22:45;5.00;98.20
9668;DHT22;4872;48.316;10.650;2022-12-07T12:25:20;5.00;98.30
9668;DHT22;4872;48.316;10.650;2022-12-07T12:27:49;4.90;98.30
9668;DHT22;4872;48.316;10.650;2022-12-07T12:30:33;4.90;98.20
9668;DHT22;4872;48.316;10.650;2022-12-07T12:33:06;4.90;98.20
9668;DHT22;4872;48.316;10.650;2022-12-07T12:35:40;4.80;98.40
9668;DHT22;4872;48.316;10.650;2022-12-07T12:38:30;4.90;98.50
9668;DHT22;4872;48.316;10.650;2022-12-07T12:40:57;4.90;98.70
9668;DHT22;4872;48.316;10.650;2022-12-07T12:43:44;4.90;98.50
9668;DHT22;4872;48.316;10.650;2022-12-07T12:46:45;5.00;98.60
9668;DHT22;4872;48.316;10.650;2022-12-07T12:49:42;4.90;98.00
9668;DHT22;4872;48.316;10.650;2022-12-07T12:58:32;5.00;98.20
9668;DHT22;4872;48.316;10.650;2022-12-07T13:04:40;5.00;98.20
9668;DHT22;4872;48.316;10.650;2022-12-07T13:07:51;4.90;97.60
9668;DHT22;4872;48.316;10.650;2022-12-07T13:10:32;4.90;97.60
9668;DHT22;4872;48.316;10.650;2022-12-07T13:13:02;4.90;97.80
9668;DHT22;4872;48.316;10.650;2022-12-07T13:15:34;4.90;97.10
9668;DHT22;4872;48.316;10.650;2022-12-07T13:20:55;4.90;97.20
9668;DHT22;4872;48.316;10.650;2022-12-07T13:23:26;4.90;96.70
9668;DHT22;4872;48.316;10.650;2022-12-07T13:26:01;4.90;96.70
9668;DHT22;4872;48.316;10.650;2022-12-07T13:28:35;4.90;96.50
9668;DHT22;4872;48.316;10.650;2022-12-07T13:31:16;4.90;96.70
9668;DHT22;4872;48.316;10.650;2022-12-07T13:33:46;4.90;96.10
9668;DHT22;4872;48.316;10.650;2022-12-07T13:36:20;4.80;95.70
9668;DHT22;4872;48.316;10.650;2022-12-07T13:38:56;4.90;96.00
9668;DHT22;4872;48.316;10.650;2022-12-07T13:41:25;4.90;96.10
9668;DHT22;4872;48.316;10.650;2022-12-07T13:43:59;4.90;96.40
9668;DHT22;4872;48.316;10.650;2022-12-07T13:46:44;4.90;95.90
9668;DHT22;4872;48.316;10.650;2022-12-07T13:49:20;4.90;95.80
9668;DHT22;4872;48.316;10.650;2022-12-07T13:51:48;5.00;96.10
9668;DHT22;4872;48.316;10.650;2022-12-07T13:54:16;5.40;96.00
9668;DHT22;4872;48.316;10.650;2022-12-07T13:56:48;6.00;95.90
9668;DHT22;4872;48.316;10.650;2022-12-07T13:59:17;6.60;95.50
9668;DHT22;4872;48.316;10.650;2022-12-07T14:01:46;7.20;94.30
9668;DHT22;4872;48.316;10.650;2022-12-07T14:04:30;7.50;93.20
9668;DHT22;4872;48.316;10.650;2022-12-07T14:06:58;7.80;94.60
9668;DHT22;4872;48.316;10.650;2022-12-07T14:09:27;8.30;93.80
9668;DHT22;4872;48.316;10.650;2022-12-07T14:11:57;8.80;93.50
9668;DHT22;4872;48.316;10.650;2022-12-07T14:14:26;8.90;92.30
9668;DHT22;4872;48.316;10.650;2022-12-07T14:17:00;9.00;91.20
9668;DHT22;4872;48.316;10.650;2022-12-07T14:19:55;8.90;91.00
9668;DHT22;4872;48.316;10.650;2022-12-07T14:22:25;8.20;91.10
9668;DHT22;4872;48.316;10.650;2022-12-07T14:24:59;8.10;91.20
9668;DHT22;4872;48.316;10.650;2022-12-07T14:27:33;7.90;90.60
9668;DHT22;4872;48.316;10.650;2022-12-07T14:30:02;7.60;90.70
9668;DHT22;4872;48.316;10.650;2022-12-07T14:32:30;7.70;90.90
9668;DHT22;4872;48.316;10.650;2022-12-07T14:34:59;7.50;90.80
9668;DHT22;4872;48.316;10.650;2022-12-07T14:37:27;7.00;91.40
9668;DHT22;4872;48.316;10.650;2022-12-07T14:39:54;6.40;91.60
9668;DHT22;4872;48.316;10.650;2022-12-07T14:42:24;6.40;92.40
9668;DHT22;4872;48.316;10.650;2022-12-07T14:44:54;6.10;91.90
9668;DHT22;4872;48.316;10.650;2022-12-07T14:47:21;5.90;92.00
9668;DHT22;4872;48.316;10.650;2022-12-07T14:49:47;5.80;92.80
9668;DHT22;4872;48.316;10.650;2022-12-07T14:52:17;5.70;92.60
9668;DHT22;4872;48.316;10.650;2022-12-07T14:54:44;5.50;92.80
9668;DHT22;4872;48.316;10.650;2022-12-07T14:57:11;5.40;92.80
9668;DHT22;4872;48.316;10.650;2022-12-07T14:59:38;5.20;93.10
9668;DHT22;4872;48.316;10.650;2022-12-07T15:02:09;5.20;93.50
9668;DHT22;4872;48.316;10.650;2022-12-07T15:04:36;5.00;93.60
9668;DHT22;4872;48.316;10.650;2022-12-07T15:07:06;5.00;93.80
9668;DHT22;4872;48.316;10.650;2022-12-07T15:09:32;4.70;93.60
9668;DHT22;4872;48.316;10.650;2022-12-07T15:11:59;4.60;93.80
9668;DHT22;4872;48.316;10.650;2022-12-07T15:14:26;4.60;94.00
9668;DHT22;4872;48.316;10.650;2022-12-07T15:16:53;4.50;93.90
9668;DHT22;4872;48.316;10.650;2022-12-07T15:19:23;4.50;94.00
9668;DHT22;4872;48.316;10.650;2022-12-07T15:21:51;4.40;94.10
9668;DHT22;4872;48.316;10.650;2022-12-07T15:24:19;4.40;94.30
9668;DHT22;4872;48.316;10.650;2022-12-07T15:26:47;4.40;94.30
9668;DHT22;4872;48.316;10.650;2022-12-07T15:29:14;4.40;94.40
9668;DHT22;4872;48.316;10.650;2022-12-07T15:31:42;4.40;94.70
9668;DHT22;4872;48.316;10.650;2022-12-07T15:34:09;4.40;95.00
9668;DHT22;4872;48.316;10.650;2022-12-07T15:36:37;4.30;95.20
9668;DHT22;4872;48.316;10.650;2022-12-07T15:39:04;4.30;95.30
9668;DHT22;4872;48.316;10.650;2022-12-07T15:41:31;4.20;95.40
9668;DHT22;4872;48.316;10.650;2022-12-07T15:43:58;4.10;95.30
9668;DHT22;4872;48.316;10.650;2022-12-07T15:46:42;4.10;95.30
9668;DHT22;4872;48.316;10.650;2022-12-07T15:49:12;4.00;95.30
9668;DHT22;4872;48.316;10.650;2022-12-07T15:51:41;3.90;95.30
9668;DHT22;4872;48.316;10.650;2022-12-07T15:54:12;3.90;95.40
9668;DHT22;4872;48.316;10.650;2022-12-07T15:56:39;3.80;95.40
9668;DHT22;4872;48.316;10.650;2022-12-07T15:59:06;3.70;95.40
9668;DHT22;4872;48.316;10.650;2022-12-07T16:01:33;3.80;95.60
9668;DHT22;4872;48.316;10.650;2022-12-07T16:03:59;3.60;95.70
9668;DHT22;4872;48.316;10.650;2022-12-07T16:06:26;3.60;95.70
9668;DHT22;4872;48.316;10.650;2022-12-07T16:08:55;3.50;95.80
9668;DHT22;4872;48.316;10.650;2022-12-07T16:11:22;3.50;95.60
9668;DHT22;4872;48.316;10.650;2022-12-07T16:13:49;3.50;95.90
9668;DHT22;4872;48.316;10.650;2022-12-07T16:16:18;3.40;95.80
9668;DHT22;4872;48.316;10.650;2022-12-07T16:18:46;3.40;95.80
9668;DHT22;4872;48.316;10.650;2022-12-07T16:21:13;3.40;95.80
9668;DHT22;4872;48.316;10.650;2022-12-07T16:23:40;3.40;95.90
9668;DHT22;4872;48.316;10.650;2022-12-07T16:26:11;3.30;95.80
9668;DHT22;4872;48.316;10.650;2022-12-07T16:28:38;3.30;96.20
9668;DHT22;4872;48.316;10.650;2022-12-07T16:31:07;3.20;96.00
9668;DHT22;4872;48.316;10.650;2022-12-07T16:33:35;3.20;95.90
9668;DHT22;4872;48.316;10.650;2022-12-07T16:36:03;3.40;96.10
9668;DHT22;4872;48.316;10.650;2022-12-07T16:38:31;3.20;95.90
9668;DHT22;4872;48.316;10.650;2022-12-07T16:40:57;3.10;96.10
9668;DHT22;4872;48.316;10.650;2022-12-07T16:43:26;3.10;96.10
9668;DHT22;4872;48.316;10.650;2022-12-07T16:45:53;3.20;96.20
9668;DHT22;4872;48.316;10.650;2022-12-07T16:48:19;3.10;96.20
9668;DHT22;4872;48.316;10.650;2022-12-07T16:50:47;3.20;96.70
9668;DHT22;4872;48.316;10.650;2022-12-07T16:53:14;3.20;96.70
9668;DHT22;4872;48.316;10.650;2022-12-07T16:55:42;3.00;96.60
9668;DHT22;4872;48.316;10.650;2022-12-07T16:58:10;3.00;96.80
9668;DHT22;4872;48.316;10.650;2022-12-07T17:00:40;3.00;96.90
9668;DHT22;4872;48.316;10.650;2022-12-07T17:03:07;2.80;96.90
9668;DHT22;4872;48.316;10.650;2022-12-07T17:05:37;2.80;97.10
9668;DHT22;4872;48.316;10.650;2022-12-07T17:08:04;2.60;97.30
9668;DHT22;4872;48.316;10.650;2022-12-07T17:10:33;2.60;97.40
9668;DHT22;4872;48.316;10.650;2022-12-07T17:13:00;2.50;97.40
9668;DHT22;4872;48.316;10.650;2022-12-07T17:15:27;2.40;97.50
9668;DHT22;4872;48.316;10.650;2022-12-07T17:17:57;2.30;97.50
9668;DHT22;4872;48.316;10.650;2022-12-07T17:20:26;2.20;97.60
9668;DHT22;4872;48.316;10.650;2022-12-07T17:22:53;2.20;97.70
9668;DHT22;4872;48.316;10.650;2022-12-07T17:25:20;2.10;97.70
9668;DHT22;4872;48.316;10.650;2022-12-07T17:27:47;2.10;97.80
9668;DHT22;4872;48.316;10.650;2022-12-07T17:30:14;2.00;98.00
9668;DHT22;4872;48.316;10.650;2022-12-07T17:32:41;2.00;98.30
9668;DHT22;4872;48.316;10.650;2022-12-07T17:35:10;1.90;98.40
9668;DHT22;4872;48.316;10.650;2022-12-07T17:37:36;1.90;98.60
9668;DHT22;4872;48.316;10.650;2022-12-07T17:40:05;1.80;98.90
9668;DHT22;4872;48.316;10.650;2022-12-07T17:42:32;1.80;99.00
9668;DHT22;4872;48.316;10.650;2022-12-07T17:45:07;1.80;98.90
9668;DHT22;4872;48.316;10.650;2022-12-07T17:47:35;1.80;99.00
9668;DHT22;4872;48.316;10.650;2022-12-07T17:50:03;1.70;98.80
9668;DHT22;4872;48.316;10.650;2022-12-07T17:52:32;1.60;98.80
9668;DHT22;4872;48.316;10.650;2022-12-07T17:55:22;1.60;98.90
9668;DHT22;4872;48.316;10.650;2022-12-07T17:57:48;1.60;99.00
9668;DHT22;4872;48.316;10.650;2022-12-07T18:00:17;1.50;99.00
9668;DHT22;4872;48.316;10.650;2022-12-07T18:02:44;1.50;99.20
9668;DHT22;4872;48.316;10.650;2022-12-07T18:05:11;1.50;99.30
9668;DHT22;4872;48.316;10.650;2022-12-07T18:07:39;1.40;99.40
9668;DHT22;4872;48.316;10.650;2022-12-07T18:10:07;1.40;99.40
9668;DHT22;4872;48.316;10.650;2022-12-07T18:12:36;1.40;99.40
9668;DHT22;4872;48.316;10.650;2022-12-07T18:15:05;1.40;99.50
9668;DHT22;4872;48.316;10.650;2022-12-07T18:17:32;1.40;99.60
9668;DHT22;4872;48.316;10.650;2022-12-07T18:19:59;1.40;99.70
9668;DHT22;4872;48.316;10.650;2022-12-07T18:22:26;1.30;99.70
9668;DHT22;4872;48.316;10.650;2022-12-07T18:24:54;1.30;99.90
9668;DHT22;4872;48.316;10.650;2022-12-07T18:27:21;1.30;99.90
9668;DHT22;4872;48.316;10.650;2022-12-07T18:29:48;1.30;99.90
9668;DHT22;4872;48.316;10.650;2022-12-07T18:32:14;1.30;99.90
9668;DHT22;4872;48.316;10.650;2022-12-07T18:34:41;1.30;99.90
9668;DHT22;4872;48.316;10.650;2022-12-07T18:37:08;1.30;99.90
9668;DHT22;4872;48.316;10.650;2022-12-07T18:39:35;1.30;99.90
9668;DHT22;4872;48.316;10.650;2022-12-07T18:42:03;1.20;99.90
9668;DHT22;4872;48.316;10.650;2022-12-07T18:44:30;1.20;99.90
9668;DHT22;4872;48.316;10.650;2022-12-07T18:46:57;1.10;99.90
9668;DHT22;4872;48.316;10.650;2022-12-07T18:49:23;1.10;99.90
9668;DHT22;4872;48.316;10.650;2022-12-07T18:51:50;1.20;99.90
9668;DHT22;4872;48.316;10.650;2022-12-07T18:54:17;1.30;99.90
9668;DHT22;4872;48.316;10.650;2022-12-07T18:56:44;1.00;99.90
9668;DHT22;4872;48.316;10.650;2022-12-07T18:59:13;1.10;99.90
9668;DHT22;4872;48.316;10.650;2022-12-07T19:01:58;1.00;99.90
9668;DHT22;4872;48.316;10.650;2022-12-07T19:04:24;1.00;99.90
9668;DHT22;4872;48.316;10.650;2022-12-07T19:06:51;1.10;99.90
9668;DHT22;4872;48.316;10.650;2022-12-07T19:09:18;1.00;99.90
9668;DHT22;4872;48.316;10.650;2022-12-07T19:11:46;1.00;99.90
9668;DHT22;4872;48.316;10.650;2022-12-07T19:14:19;1.00;99.90
9668;DHT22;4872;48.316;10.650;2022-12-07T19:16:46;1.00;99.90
9668;DHT22;4872;48.316;10.650;2022-12-07T19:19:15;1.00;99.90
9668;DHT22;4872;48.316;10.650;2022-12-07T19:21:43;1.00;99.90
9668;DHT22;4872;48.316;10.650;2022-12-07T19:24:10;1.00;99.90
9668;DHT22;4872;48.316;10.650;2022-12-07T19:26:37;1.10;99.90
9668;DHT22;4872;48.316;10.650;2022-12-07T19:29:04;1.00;99.90
9668;DHT22;4872;48.316;10.650;2022-12-07T19:31:32;1.00;99.90
9668;DHT22;4872;48.316;10.650;2022-12-07T19:34:00;1.00;99.90
9668;DHT22;4872;48.316;10.650;2022-12-07T19:36:28;1.00;99.90
9668;DHT22;4872;48.316;10.650;2022-12-07T19:38:54;1.00;99.90
9668;DHT22;4872;48.316;10.650;2022-12-07T19:41:21;1.00;99.90
9668;DHT22;4872;48.316;10.650;2022-12-07T19:44:01;1.00;99.90
9668;DHT22;4872;48.316;10.650;2022-12-07T19:46:29;1.00;99.90
9668;DHT22;4872;48.316;10.650;2022-12-07T19:48:57;1.00;99.90
9668;DHT22;4872;48.316;10.650;2022-12-07T19:51:25;1.00;99.90
9668;DHT22;4872;48.316;10.650;2022-12-07T19:53:54;1.00;99.90
9668;DHT22;4872;48.316;10.650;2022-12-07T19:56:21;1.00;99.90
9668;DHT22;4872;48.316;10.650;2022-12-07T19:58:48;1.00;99.90
9668;DHT22;4872;48.316;10.650;2022-12-07T20:01:15;1.00;99.90
9668;DHT22;4872;48.316;10.650;2022-12-07T20:03:42;1.00;99.90
9668;DHT22;4872;48.316;10.650;2022-12-07T20:06:12;1.10;99.90
9668;DHT22;4872;48.316;10.650;2022-12-07T20:08:40;1.10;99.90
9668;DHT22;4872;48.316;10.650;2022-12-07T20:11:08;1.00;99.90
9668;DHT22;4872;48.316;10.650;2022-12-07T20:13:52;1.00;99.90
9668;DHT22;4872;48.316;10.650;2022-12-07T20:16:19;1.00;99.90
9668;DHT22;4872;48.316;10.650;2022-12-07T20:18:47;1.10;99.90
9668;DHT22;4872;48.316;10.650;2022-12-07T20:21:15;1.10;99.90
9668;DHT22;4872;48.316;10.650;2022-12-07T20:23:42;1.10;99.90
9668;DHT22;4872;48.316;10.650;2022-12-07T20:26:10;1.10;99.90
9668;DHT22;4872;48.316;10.650;2022-12-07T20:28:37;1.10;99.90
9668;DHT22;4872;48.316;10.650;2022-12-07T20:31:04;1.10;99.90
9668;DHT22;4872;48.316;10.650;2022-12-07T20:33:31;1.10;99.90
9668;DHT22;4872;48.316;10.650;2022-12-07T20:35:59;1.10;99.90
9668;DHT22;4872;48.316;10.650;2022-12-07T20:38:28;1.10;99.90
9668;DHT22;4872;48.316;10.650;2022-12-07T20:40:59;1.10;99.90
9668;DHT22;4872;48.316;10.650;2022-12-07T20:43:26;1.10;99.90
9668;DHT22;4872;48.316;10.650;2022-12-07T20:45:53;1.10;99.90
9668;DHT22;4872;48.316;10.650;2022-12-07T20:48:19;1.20;99.90
9668;DHT22;4872;48.316;10.650;2022-12-07T20:50:46;1.20;99.90
9668;DHT22;4872;48.316;10.650;2022-12-07T20:53:13;1.20;99.90
9668;DHT22;4872;48.316;10.650;2022-12-07T20:55:41;1.20;99.90
9668;DHT22;4872;48.316;10.650;2022-12-07T20:58:08;1.20;99.90
9668;DHT22;4872;48.316;10.650;2022-12-07T21:00:35;1.20;99.90
9668;DHT22;4872;48.316;10.650;2022-12-07T21:03:03;1.20;99.90
9668;DHT22;4872;48.316;10.650;2022-12-07T21:05:30;1.30;99.90
9668;DHT22;4872;48.316;10.650;2022-12-07T21:07:56;1.30;99.90
9668;DHT22;4872;48.316;10.650;2022-12-07T21:10:23;1.30;99.90
9668;DHT22;4872;48.316;10.650;2022-12-07T21:12:52;1.30;99.90
9668;DHT22;4872;48.316;10.650;2022-12-07T21:15:18;1.40;99.90
9668;DHT22;4872;48.316;10.650;2022-12-07T21:17:45;1.40;99.90
9668;DHT22;4872;48.316;10.650;2022-12-07T21:20:12;1.30;99.90
9668;DHT22;4872;48.316;10.650;2022-12-07T21:22:39;1.40;99.90
9668;DHT22;4872;48.316;10.650;2022-12-07T21:25:06;1.40;99.90